Time;durP1;ratioP1;P1;durP2;ratioP2;P2;SDS_P1;SDS_P2;PMS_P1;PMS_P2;Temp;Humidity;BMP_temperature;BMP_pressure;BME280_temperature;BME280_humidity;BME280_pressure;Samples;Min_cycle;Max_cycle;Signal;HPM_P1;HPM_P2
2023/07/23 00:00:18;;;;;;;25.70;22.58;;;;;;;;;;4969793;28;20059;-55
2023/07/23 00:02:44;;;;;;;20.90;17.13;;;;;;;;;;4969117;28;20065;-58
2023/07/23 00:05:10;;;;;;;22.63;19.27;;;;;;;;;;4969484;28;20178;-57
2023/07/23 00:07:36;;;;;;;23.85;19.08;;;;;;;;;;4970122;28;20034;-55
2023/07/23 00:10:03;;;;;;;21.73;18.10;;;;;;;;;;4970573;28;20050;-56
2023/07/23 00:12:29;;;;;;;25.27;19.65;;;;;;;;;;4970076;28;20534;-56
2023/07/23 00:14:55;;;;;;;23.40;18.35;;;;;;;;;;4969259;28;20062;-55
2023/07/23 00:17:21;;;;;;;22.38;18.48;;;;;;;;;;4969952;28;20050;-57
2023/07/23 00:19:47;;;;;;;21.55;17.85;;;;;;;;;;4971238;28;20536;-57
2023/07/23 00:22:13;;;;;;;23.92;19.15;;;;;;;;;;4970035;28;20035;-55
2023/07/23 00:24:39;;;;;;;23.05;18.90;;;;;;;;;;4969324;28;20031;-56
2023/07/23 00:27:05;;;;;;;24.83;20.25;;;;;;;;;;4970049;28;20395;-56
2023/07/23 00:29:31;;;;;;;26.08;20.70;;;;;;;;;;4969711;28;20023;-53
2023/07/23 00:31:57;;;;;;;23.27;19.52;;;;;;;;;;4969865;28;20152;-56
2023/07/23 00:34:23;;;;;;;23.08;19.52;;;;;;;;;;4967973;28;20026;-56
2023/07/23 00:36:49;;;;;;;24.80;20.30;;;;;;;;;;4968894;28;20433;-56
2023/07/23 00:39:15;;;;;;;23.38;19.23;;;;;;;;;;4969659;28;20023;-56
2023/07/23 00:41:41;;;;;;;22.38;19.52;;;;;;;;;;4969905;28;20021;-56
2023/07/23 00:44:07;;;;;;;25.65;19.90;;;;;;;;;;4969182;28;20034;-55
2023/07/23 00:46:33;;;;;;;24.20;19.77;;;;;;;;;;4969703;28;20027;-57
2023/07/23 00:49:02;;;;;;;27.45;20.63;;;;;;;;;;4969864;28;20134;-55
2023/07/23 00:51:29;;;;;;;22.55;19.52;;;;;;;;;;4973206;28;20031;-53
2023/07/23 00:53:55;;;;;;;23.52;19.88;;;;;;;;;;4972365;28;20045;-58
2023/07/23 00:56:21;;;;;;;23.80;19.90;;;;;;;;;;4972808;28;20360;-56
2023/07/23 00:58:48;;;;;;;23.65;19.73;;;;;;;;;;4972695;28;20056;-54
2023/07/23 01:01:14;;;;;;;23.23;19.35;;;;;;;;;;4973010;28;20042;-58
2023/07/23 01:03:40;;;;;;;24.02;19.67;;;;;;;;;;4972987;28;20031;-57
2023/07/23 01:06:06;;;;;;;24.65;19.73;;;;;;;;;;4971861;28;20031;-55
2023/07/23 01:08:35;;;;;;;23.02;19.38;;;;;;;;;;4972646;28;20031;-58
2023/07/23 01:11:02;;;;;;;22.63;18.50;;;;;;;;;;4972764;28;20034;-58
2023/07/23 01:13:28;;;;;;;22.67;18.02;;;;;;;;;;4972394;28;20023;-52
2023/07/23 01:15:55;;;;;;;22.17;18.73;;;;;;;;;;4970595;28;20030;-54
2023/07/23 01:18:21;;;;;;;26.35;18.48;;;;;;;;;;4972540;28;20031;-54
2023/07/23 01:20:47;;;;;;;23.27;18.00;;;;;;;;;;4971279;28;20027;-56
2023/07/23 01:23:13;;;;;;;21.38;17.15;;;;;;;;;;4972576;28;20038;-56
2023/07/23 01:25:39;;;;;;;23.40;19.08;;;;;;;;;;4970625;28;20035;-55
2023/07/23 01:28:07;;;;;;;23.05;17.38;;;;;;;;;;4970896;28;20098;-54
2023/07/23 01:30:33;;;;;;;24.20;18.10;;;;;;;;;;4972284;28;20035;-56
2023/07/23 01:33:00;;;;;;;21.65;17.17;;;;;;;;;;4972370;28;20266;-54
2023/07/23 01:35:26;;;;;;;23.63;17.98;;;;;;;;;;4971598;28;20388;-55
2023/07/23 01:37:52;;;;;;;23.52;17.10;;;;;;;;;;4972181;28;20030;-54
2023/07/23 01:40:18;;;;;;;21.45;17.05;;;;;;;;;;4972200;28;20430;-55
2023/07/23 01:42:45;;;;;;;26.95;17.73;;;;;;;;;;4972128;28;20027;-56
2023/07/23 01:45:12;;;;;;;24.25;16.50;;;;;;;;;;4971585;28;20027;-55
2023/07/23 01:47:38;;;;;;;22.45;17.75;;;;;;;;;;4971922;28;20026;-57
2023/07/23 01:50:04;;;;;;;21.45;16.92;;;;;;;;;;4972064;28;20038;-55
2023/07/23 01:52:30;;;;;;;24.35;16.67;;;;;;;;;;4971835;28;20099;-54
2023/07/23 01:54:56;;;;;;;22.52;16.33;;;;;;;;;;5066529;28;20112;-54
2023/07/23 01:57:22;;;;;;;19.30;15.13;;;;;;;;;;5093911;28;20028;-55
2023/07/23 01:59:49;;;;;;;21.23;15.52;;;;;;;;;;5093773;28;20484;-57
2023/07/23 02:02:15;;;;;;;24.15;17.35;;;;;;;;;;5093791;28;20035;-57
2023/07/23 02:04:40;;;;;;;22.95;16.00;;;;;;;;;;5093092;28;20032;-57
2023/07/23 02:07:06;;;;;;;19.95;15.60;;;;;;;;;;5093576;28;20123;-51
2023/07/23 02:09:32;;;;;;;20.05;14.98;;;;;;;;;;5093749;28;20020;-51
2023/07/23 02:11:58;;;;;;;21.35;15.45;;;;;;;;;;5093521;28;20024;-56
2023/07/23 02:14:24;;;;;;;21.17;15.95;;;;;;;;;;5092958;28;20085;-54
2023/07/23 02:16:50;;;;;;;21.05;15.02;;;;;;;;;;5093644;28;20025;-56
2023/07/23 02:19:16;;;;;;;21.65;15.00;;;;;;;;;;5055323;28;20024;-56
2023/07/23 02:21:42;;;;;;;22.10;15.82;;;;;;;;;;5048669;28;20636;-57
2023/07/23 02:24:08;;;;;;;20.65;15.18;;;;;;;;;;5050284;28;20081;-53
2023/07/23 02:26:34;;;;;;;20.90;15.93;;;;;;;;;;5051076;28;20426;-56
2023/07/23 02:29:00;;;;;;;20.75;15.07;;;;;;;;;;5063074;28;20031;-57
2023/07/23 02:31:26;;;;;;;23.02;15.82;;;;;;;;;;5076256;28;20031;-54
2023/07/23 02:33:52;;;;;;;22.58;16.02;;;;;;;;;;5093042;28;20476;-58
2023/07/23 02:36:18;;;;;;;22.40;16.13;;;;;;;;;;5093037;28;20028;-56
2023/07/23 02:38:44;;;;;;;21.88;15.93;;;;;;;;;;5092088;28;20134;-56
2023/07/23 02:41:10;;;;;;;21.85;15.82;;;;;;;;;;5093306;28;20039;-56
2023/07/23 02:43:36;;;;;;;21.23;15.45;;;;;;;;;;5093195;28;20117;-56
2023/07/23 02:46:02;;;;;;;25.00;16.40;;;;;;;;;;5092392;28;20036;-56
2023/07/23 02:48:28;;;;;;;21.90;15.00;;;;;;;;;;5092965;28;20032;-57
2023/07/23 02:50:54;;;;;;;21.70;14.40;;;;;;;;;;5093035;28;20131;-55
2023/07/23 02:53:20;;;;;;;20.75;15.15;;;;;;;;;;5091832;28;20027;-52
2023/07/23 02:55:47;;;;;;;20.13;14.52;;;;;;;;;;5092108;28;20016;-54
2023/07/23 02:58:13;;;;;;;20.38;14.57;;;;;;;;;;5068852;28;20034;-53
2023/07/23 03:00:40;;;;;;;19.92;14.50;;;;;;;;;;5041796;28;20034;-57
2023/07/23 03:03:07;;;;;;;23.83;15.95;;;;;;;;;;5092684;28;20055;-57
2023/07/23 03:05:34;;;;;;;22.13;14.73;;;;;;;;;;5091877;28;20028;-57
2023/07/23 03:08:00;;;;;;;21.95;14.25;;;;;;;;;;5092609;28;20036;-52
2023/07/23 03:10:28;;;;;;;20.80;14.20;;;;;;;;;;5092620;28;20035;-54
2023/07/23 03:12:54;;;;;;;22.02;14.30;;;;;;;;;;5092070;28;20020;-53
2023/07/23 03:15:20;;;;;;;23.17;13.52;;;;;;;;;;5091758;28;20031;-55
2023/07/23 03:17:46;;;;;;;21.27;13.90;;;;;;;;;;5092459;28;20024;-55
2023/07/23 03:20:13;;;;;;;20.38;14.50;;;;;;;;;;5092407;28;20635;-55
2023/07/23 03:22:41;;;;;;;19.02;13.25;;;;;;;;;;5091456;28;20032;-57
2023/07/23 03:25:08;;;;;;;20.05;14.10;;;;;;;;;;5091541;28;20112;-55
2023/07/23 03:27:34;;;;;;;20.48;14.70;;;;;;;;;;5092105;28;20108;-55
2023/07/23 03:30:00;;;;;;;20.42;13.82;;;;;;;;;;5092128;28;20499;-51
2023/07/23 03:32:26;;;;;;;22.70;14.10;;;;;;;;;;5092243;28;20052;-56
2023/07/23 03:34:52;;;;;;;20.17;13.82;;;;;;;;;;5091409;28;20381;-56
2023/07/23 03:37:18;;;;;;;26.23;14.98;;;;;;;;;;5091669;28;20024;-55
2023/07/23 03:39:44;;;;;;;21.92;13.45;;;;;;;;;;5091484;28;20032;-57
2023/07/23 03:42:10;;;;;;;21.02;13.50;;;;;;;;;;5091927;28;20108;-58
2023/07/23 03:44:36;;;;;;;21.02;14.18;;;;;;;;;;5091264;28;20031;-55
2023/07/23 03:47:06;;;;;;;19.13;13.20;;;;;;;;;;5091846;28;20020;-56
2023/07/23 03:49:32;;;;;;;21.15;14.73;;;;;;;;;;5091580;28;20055;-55
2023/07/23 03:51:58;;;;;;;22.85;14.55;;;;;;;;;;5091884;28;20046;-57
2023/07/23 03:54:25;;;;;;;20.65;13.93;;;;;;;;;;5091069;28;20095;-56
2023/07/23 03:56:51;;;;;;;20.73;14.18;;;;;;;;;;5090631;28;20203;-59
2023/07/23 03:59:17;;;;;;;21.00;13.65;;;;;;;;;;5091613;28;20464;-55
2023/07/23 04:01:43;;;;;;;23.67;13.43;;;;;;;;;;5090831;28;20135;-56
2023/07/23 04:04:09;;;;;;;20.77;14.45;;;;;;;;;;5091285;28;20024;-56
2023/07/23 04:06:35;;;;;;;20.80;12.77;;;;;;;;;;5090598;28;20028;-56
2023/07/23 04:09:01;;;;;;;23.25;13.65;;;;;;;;;;5091706;28;20641;-56
2023/07/23 04:11:27;;;;;;;19.88;12.68;;;;;;;;;;5091779;28;20541;-52
2023/07/23 04:13:53;;;;;;;19.30;12.75;;;;;;;;;;5091291;28;20020;-56
2023/07/23 04:16:19;;;;;;;18.85;11.98;;;;;;;;;;5089943;28;20030;-54
2023/07/23 04:18:46;;;;;;;22.88;12.57;;;;;;;;;;5091603;28;20396;-58
2023/07/23 04:21:12;;;;;;;21.52;12.38;;;;;;;;;;5047070;28;20428;-55
2023/07/23 04:23:38;;;;;;;20.33;12.10;;;;;;;;;;5043105;28;20050;-55
2023/07/23 04:26:04;;;;;;;19.42;12.20;;;;;;;;;;5030175;28;20464;-53
2023/07/23 04:28:30;;;;;;;18.98;11.73;;;;;;;;;;5052874;28;20095;-56
2023/07/23 04:30:56;;;;;;;20.25;12.00;;;;;;;;;;5095587;28;20024;-57
2023/07/23 04:33:22;;;;;;;20.85;11.60;;;;;;;;;;5094260;28;20027;-56
2023/07/23 04:35:48;;;;;;;18.55;11.07;;;;;;;;;;5094793;28;20112;-55
2023/07/23 04:38:14;;;;;;;21.15;12.35;;;;;;;;;;5037889;28;20030;-57
2023/07/23 04:40:40;;;;;;;19.33;11.65;;;;;;;;;;5086890;28;20476;-57
2023/07/23 04:43:06;;;;;;;23.33;13.75;;;;;;;;;;5095351;28;20020;-55
2023/07/23 04:45:32;;;;;;;19.20;10.73;;;;;;;;;;5094559;28;20027;-54
2023/07/23 04:47:58;;;;;;;20.42;10.50;;;;;;;;;;5095190;28;20401;-57
2023/07/23 04:50:24;;;;;;;20.77;12.05;;;;;;;;;;5094004;28;20123;-57
2023/07/23 04:52:50;;;;;;;20.95;11.13;;;;;;;;;;5095204;28;20488;-54
2023/07/23 04:55:16;;;;;;;21.67;11.25;;;;;;;;;;5057101;28;20058;-55
2023/07/23 04:57:42;;;;;;;19.55;10.25;;;;;;;;;;5051954;28;20376;-51
2023/07/23 05:00:08;;;;;;;20.35;11.02;;;;;;;;;;5052526;28;20043;-54
2023/07/23 05:02:34;;;;;;;19.90;11.57;;;;;;;;;;5038846;28;20397;-56
2023/07/23 05:05:00;;;;;;;22.33;10.30;;;;;;;;;;5094195;28;20024;-56
2023/07/23 05:07:26;;;;;;;18.77;10.00;;;;;;;;;;5087957;28;20407;-54
2023/07/23 05:09:52;;;;;;;18.40;10.38;;;;;;;;;;5053342;28;20031;-57
2023/07/23 05:12:18;;;;;;;19.73;11.68;;;;;;;;;;5093542;28;20024;-57
2023/07/23 05:14:46;;;;;;;24.13;11.10;;;;;;;;;;5094128;28;20032;-57
2023/07/23 05:17:12;;;;;;;18.45;10.73;;;;;;;;;;5093360;28;20066;-53
2023/07/23 05:19:38;;;;;;;21.85;11.35;;;;;;;;;;5068957;28;20493;-54
2023/07/23 05:22:04;;;;;;;19.23;10.95;;;;;;;;;;5051920;28;20103;-57
2023/07/23 05:24:30;;;;;;;19.52;10.18;;;;;;;;;;5093832;28;20035;-58
2023/07/23 05:26:56;;;;;;;17.90;9.88;;;;;;;;;;5094507;28;20532;-56
2023/07/23 05:29:22;;;;;;;20.02;10.95;;;;;;;;;;5094564;28;20032;-58
2023/07/23 05:31:48;;;;;;;16.67;9.82;;;;;;;;;;5094580;28;20058;-57
2023/07/23 05:34:14;;;;;;;19.08;10.15;;;;;;;;;;5092366;28;20392;-52
2023/07/23 05:36:40;;;;;;;17.25;10.35;;;;;;;;;;5093758;28;20027;-54
2023/07/23 05:39:06;;;;;;;20.52;10.90;;;;;;;;;;5094176;28;20457;-53
2023/07/23 05:41:32;;;;;;;18.90;10.77;;;;;;;;;;5094308;28;20031;-56
2023/07/23 05:43:58;;;;;;;18.02;9.95;;;;;;;;;;5087289;28;20020;-53
2023/07/23 05:46:24;;;;;;;18.63;10.88;;;;;;;;;;5033678;28;20441;-54
2023/07/23 05:48:50;;;;;;;20.08;11.05;;;;;;;;;;5093673;28;20050;-53
2023/07/23 05:51:16;;;;;;;17.85;9.43;;;;;;;;;;5092890;28;20028;-55
2023/07/23 05:53:42;;;;;;;18.38;11.23;;;;;;;;;;5094174;28;20016;-51
2023/07/23 05:56:08;;;;;;;18.73;10.68;;;;;;;;;;5092139;28;20024;-56
2023/07/23 05:58:34;;;;;;;18.90;10.25;;;;;;;;;;5093974;28;20369;-56
2023/07/23 06:01:00;;;;;;;18.10;10.05;;;;;;;;;;5093954;28;20031;-54
2023/07/23 06:03:26;;;;;;;20.38;10.40;;;;;;;;;;5094025;28;20377;-54
2023/07/23 06:05:52;;;;;;;18.30;9.88;;;;;;;;;;5093141;28;20134;-56
2023/07/23 06:08:18;;;;;;;19.55;10.18;;;;;;;;;;5093617;28;20040;-55
2023/07/23 06:10:44;;;;;;;17.63;9.88;;;;;;;;;;5093817;28;20036;-55
2023/07/23 06:13:10;;;;;;;18.80;9.98;;;;;;;;;;5066833;28;20042;-53
2023/07/23 06:15:36;;;;;;;19.17;10.35;;;;;;;;;;5019672;28;20023;-56
2023/07/23 06:18:02;;;;;;;19.17;11.02;;;;;;;;;;5044946;28;20043;-54
2023/07/23 06:20:28;;;;;;;19.08;10.40;;;;;;;;;;4988464;28;20093;-54
2023/07/23 06:22:55;;;;;;;18.55;10.80;;;;;;;;;;5067140;28;20024;-54
2023/07/23 06:25:21;;;;;;;17.52;9.85;;;;;;;;;;5026943;28;20049;-54
2023/07/23 06:27:47;;;;;;;18.17;10.18;;;;;;;;;;5048179;28;20507;-56
2023/07/23 06:30:13;;;;;;;17.40;9.75;;;;;;;;;;5071073;28;20425;-58
2023/07/23 06:32:39;;;;;;;18.25;10.07;;;;;;;;;;4991237;28;20022;-58
2023/07/23 06:35:10;;;;;;;16.92;10.20;;;;;;;;;;4989865;28;20030;-51
2023/07/23 06:37:36;;;;;;;17.05;9.85;;;;;;;;;;4990668;28;20035;-49
2023/07/23 06:40:02;;;;;;;17.92;10.82;;;;;;;;;;4990585;28;20125;-51
2023/07/23 06:42:28;;;;;;;19.40;10.77;;;;;;;;;;4989444;28;20031;-52
2023/07/23 06:44:54;;;;;;;18.20;10.35;;;;;;;;;;4989743;28;20387;-51
2023/07/23 06:47:20;;;;;;;17.13;10.48;;;;;;;;;;4984481;28;20111;-56
2023/07/23 06:49:46;;;;;;;17.88;10.45;;;;;;;;;;4970901;28;20019;-54
2023/07/23 06:52:12;;;;;;;18.50;10.43;;;;;;;;;;4971142;28;20054;-53
2023/07/23 06:54:42;;;;;;;17.55;9.70;;;;;;;;;;4980531;28;20027;-56
2023/07/23 06:57:08;;;;;;;16.52;10.02;;;;;;;;;;5050405;28;20012;-55
2023/07/23 06:59:34;;;;;;;17.02;9.55;;;;;;;;;;5092669;28;20024;-56
2023/07/23 07:02:00;;;;;;;27.35;10.10;;;;;;;;;;5092935;28;20107;-56
2023/07/23 07:04:26;;;;;;;16.92;10.00;;;;;;;;;;5092097;28;20107;-50
2023/07/23 07:06:52;;;;;;;18.85;10.35;;;;;;;;;;5092375;28;20039;-57
2023/07/23 07:09:18;;;;;;;17.70;9.98;;;;;;;;;;5092489;28;20389;-54
2023/07/23 07:11:44;;;;;;;18.45;10.55;;;;;;;;;;5092549;28;20020;-56
2023/07/23 07:14:10;;;;;;;16.23;9.57;;;;;;;;;;5069354;28;20339;-50
2023/07/23 07:16:36;;;;;;;16.75;9.95;;;;;;;;;;4990173;28;20072;-53
2023/07/23 07:19:02;;;;;;;17.23;10.00;;;;;;;;;;4990050;28;21010;-53
2023/07/23 07:21:28;;;;;;;17.35;9.93;;;;;;;;;;4988592;28;20026;-56
2023/07/23 07:23:55;;;;;;;16.75;9.52;;;;;;;;;;4988704;28;20034;-62
2023/07/23 07:26:21;;;;;;;19.27;10.27;;;;;;;;;;4988556;28;20030;-63
2023/07/23 07:28:47;;;;;;;17.85;10.40;;;;;;;;;;4988655;28;20075;-62
2023/07/23 07:31:15;;;;;;;16.90;10.85;;;;;;;;;;4989869;28;20023;-62
2023/07/23 07:33:43;;;;;;;16.80;9.55;;;;;;;;;;4989849;28;20019;-63
2023/07/23 07:36:09;;;;;;;15.73;9.75;;;;;;;;;;4987868;28;20069;-63
2023/07/23 07:38:35;;;;;;;16.25;9.52;;;;;;;;;;4989673;28;20458;-62
2023/07/23 07:41:01;;;;;;;16.50;9.52;;;;;;;;;;4989747;28;20030;-63
2023/07/23 07:43:27;;;;;;;16.48;9.57;;;;;;;;;;4988607;28;20402;-62
2023/07/23 07:45:58;;;;;;;16.63;9.57;;;;;;;;;;4988925;28;20050;-63
2023/07/23 07:48:24;;;;;;;16.45;9.63;;;;;;;;;;4983267;28;20034;-63
2023/07/23 07:51:00;;;;;;;17.25;9.85;;;;;;;;;;4970147;28;20027;-63
2023/07/23 07:53:27;;;;;;;17.40;9.40;;;;;;;;;;4970243;28;20022;-63
2023/07/23 07:55:53;;;;;;;17.55;10.20;;;;;;;;;;4968217;28;20455;-62
2023/07/23 07:58:24;;;;;;;17.98;8.90;;;;;;;;;;4969543;28;20073;-63
2023/07/23 08:00:51;;;;;;;19.10;8.93;;;;;;;;;;4970018;28;20121;-62
2023/07/23 08:03:17;;;;;;;16.63;9.80;;;;;;;;;;4968760;28;20046;-64
2023/07/23 08:05:43;;;;;;;17.25;9.00;;;;;;;;;;4969289;28;20023;-63
2023/07/23 08:08:10;;;;;;;16.63;9.25;;;;;;;;;;4973342;28;20035;-62
2023/07/23 08:10:38;;;;;;;15.63;9.25;;;;;;;;;;5014104;28;20289;-61
2023/07/23 08:13:04;;;;;;;15.10;9.02;;;;;;;;;;5067827;28;20463;-60
2023/07/23 08:15:31;;;;;;;18.15;10.00;;;;;;;;;;5073167;28;20533;-60
2023/07/23 08:17:58;;;;;;;16.02;9.35;;;;;;;;;;5008378;28;20018;-62
2023/07/23 08:20:24;;;;;;;17.52;9.18;;;;;;;;;;5008197;28;20079;-61
2023/07/23 08:22:51;;;;;;;16.38;8.88;;;;;;;;;;5008076;28;20086;-61
2023/07/23 08:25:17;;;;;;;16.90;8.95;;;;;;;;;;5008004;28;20393;-61
2023/07/23 08:27:43;;;;;;;16.45;9.07;;;;;;;;;;5008246;28;20101;-62
2023/07/23 08:30:10;;;;;;;17.83;9.73;;;;;;;;;;5007622;28;20037;-60
2023/07/23 08:32:37;;;;;;;15.75;9.00;;;;;;;;;;5008488;28;20026;-59
2023/07/23 08:35:03;;;;;;;16.88;8.98;;;;;;;;;;5007552;28;20405;-60
2023/07/23 08:37:30;;;;;;;17.08;9.50;;;;;;;;;;5028799;28;20031;-61
2023/07/23 08:39:56;;;;;;;17.13;9.70;;;;;;;;;;5110965;28;20031;-61
2023/07/23 08:42:42;;;;;;;16.08;9.40;;;;;;;;;;5109816;28;20123;-59
2023/07/23 08:45:08;;;;;;;16.40;9.65;;;;;;;;;;5069068;28;20051;-58
2023/07/23 08:47:37;;;;;;;19.15;9.13;;;;;;;;;;5110882;28;20028;-61
2023/07/23 08:50:03;;;;;;;17.02;9.65;;;;;;;;;;5110936;28;20019;-59
2023/07/23 08:52:31;;;;;;;18.58;9.32;;;;;;;;;;5110762;28;20026;-61
2023/07/23 08:54:57;;;;;;;19.40;9.98;;;;;;;;;;5110488;28;20051;-61
2023/07/23 08:57:23;;;;;;;17.50;8.68;;;;;;;;;;5110015;28;20027;-61
2023/07/23 08:59:50;;;;;;;17.83;9.88;;;;;;;;;;5111292;28;20126;-58
2023/07/23 09:02:16;;;;;;;15.85;8.90;;;;;;;;;;5111224;28;20030;-60
2023/07/23 09:04:42;;;;;;;17.35;9.23;;;;;;;;;;5110245;28;20383;-61
2023/07/23 09:07:11;;;;;;;15.90;8.85;;;;;;;;;;5109624;28;20023;-58
2023/07/23 09:09:37;;;;;;;15.73;8.55;;;;;;;;;;5111143;28;20028;-59
2023/07/23 09:12:03;;;;;;;18.27;9.20;;;;;;;;;;5113569;28;20088;-51
2023/07/23 09:14:30;;;;;;;15.30;8.65;;;;;;;;;;5114975;28;20038;-62
2023/07/23 09:16:56;;;;;;;14.60;8.38;;;;;;;;;;5014468;28;20545;-56
2023/07/23 09:19:23;;;;;;;16.05;9.13;;;;;;;;;;5010054;28;20105;-57
2023/07/23 09:21:49;;;;;;;15.65;9.02;;;;;;;;;;5011294;28;20100;-59
2023/07/23 09:24:16;;;;;;;16.23;8.73;;;;;;;;;;5009035;28;20033;-62
2023/07/23 09:26:43;;;;;;;15.63;8.98;;;;;;;;;;5011368;28;20028;-64
2023/07/23 09:29:09;;;;;;;15.73;8.57;;;;;;;;;;5011307;28;20033;-57
2023/07/23 09:31:36;;;;;;;17.02;8.70;;;;;;;;;;5009847;28;20029;-55
2023/07/23 09:34:02;;;;;;;17.58;9.20;;;;;;;;;;5010750;28;20079;-54
2023/07/23 09:36:29;;;;;;;15.77;9.10;;;;;;;;;;5009739;28;20026;-54
2023/07/23 09:39:03;;;;;;;16.90;8.65;;;;;;;;;;5011319;28;20033;-55
2023/07/23 09:41:32;;;;;;;15.85;8.20;;;;;;;;;;5012006;28;20026;-56
2023/07/23 09:44:17;;;;;;;17.38;8.88;;;;;;;;;;5080550;28;20497;-50
2023/07/23 09:46:46;;;;;;;16.65;8.90;;;;;;;;;;5053342;28;20117;-58
2023/07/23 09:49:12;;;;;;;16.80;9.63;;;;;;;;;;5086937;28;20114;-54
2023/07/23 09:51:38;;;;;;;14.95;8.60;;;;;;;;;;5071661;28;20046;-56
2023/07/23 09:54:05;;;;;;;16.55;9.35;;;;;;;;;;5113794;28;20516;-55
2023/07/23 09:56:36;;;;;;;16.83;9.43;;;;;;;;;;5113890;28;20031;-56
2023/07/23 09:59:02;;;;;;;15.25;7.78;;;;;;;;;;5113985;28;20027;-55
2023/07/23 10:01:28;;;;;;;16.75;8.30;;;;;;;;;;5114023;28;20053;-55
2023/07/23 10:03:55;;;;;;;18.05;8.93;;;;;;;;;;5098553;28;20373;-58
2023/07/23 10:06:22;;;;;;;16.50;8.07;;;;;;;;;;5020294;28;20099;-56
2023/07/23 10:08:49;;;;;;;15.75;8.35;;;;;;;;;;5022228;28;20389;-54
2023/07/23 10:11:15;;;;;;;15.80;8.80;;;;;;;;;;5067763;28;20019;-54
2023/07/23 10:13:42;;;;;;;15.55;7.95;;;;;;;;;;5070822;28;20332;-54
2023/07/23 10:16:10;;;;;;;15.38;7.85;;;;;;;;;;5048392;28;20057;-56
2023/07/23 10:18:37;;;;;;;15.00;7.40;;;;;;;;;;5010129;28;20299;-55
2023/07/23 10:21:05;;;;;;;15.37;7.77;;;;;;;;;;5010015;28;20030;-54
2023/07/23 10:23:31;;;;;;;14.93;7.40;;;;;;;;;;5010305;28;20033;-53
2023/07/23 10:26:16;;;;;;;15.93;7.57;;;;;;;;;;5009548;28;20034;-57
2023/07/23 10:28:42;;;;;;;16.05;8.05;;;;;;;;;;5010024;28;20045;-52
2023/07/23 10:31:18;;;;;;;15.07;7.60;;;;;;;;;;5010306;28;20097;-57
2023/07/23 10:33:45;;;;;;;16.42;7.88;;;;;;;;;;5009029;28;20022;-54
2023/07/23 10:36:11;;;;;;;16.38;7.90;;;;;;;;;;5009616;28;20018;-56
2023/07/23 10:38:38;;;;;;;14.23;7.22;;;;;;;;;;5001231;28;20030;-57
2023/07/23 10:41:04;;;;;;;14.88;7.30;;;;;;;;;;4998917;28;20101;-57
2023/07/23 10:43:44;;;;;;;15.60;7.05;;;;;;;;;;5000526;28;20053;-56
2023/07/23 10:46:11;;;;;;;15.73;7.10;;;;;;;;;;4994638;28;20084;-52
2023/07/23 10:48:42;;;;;;;14.75;7.47;;;;;;;;;;4989989;28;20087;-58
2023/07/23 10:51:09;;;;;;;15.30;7.15;;;;;;;;;;4990267;28;20056;-55
2023/07/23 10:53:37;;;;;;;17.17;7.38;;;;;;;;;;4990907;28;20089;-58
2023/07/23 10:56:04;;;;;;;15.95;7.85;;;;;;;;;;4988347;28;20031;-58
2023/07/23 10:58:30;;;;;;;15.77;7.00;;;;;;;;;;4990697;28;20742;-56
2023/07/23 11:00:57;;;;;;;15.57;6.90;;;;;;;;;;5021950;28;20016;-57
2023/07/23 11:03:24;;;;;;;14.35;6.65;;;;;;;;;;5077518;28;20032;-57
2023/07/23 11:05:52;;;;;;;16.55;7.25;;;;;;;;;;5068850;28;20046;-60
2023/07/23 11:08:23;;;;;;;14.20;6.63;;;;;;;;;;5112212;28;20031;-57
2023/07/23 11:10:59;;;;;;;14.63;6.47;;;;;;;;;;5112395;28;20273;-58
2023/07/23 11:13:43;;;;;;;14.80;6.70;;;;;;;;;;5112741;28;20042;-57
2023/07/23 11:16:09;;;;;;;14.10;6.53;;;;;;;;;;5045606;28;20113;-56
2023/07/23 11:18:35;;;;;;;14.57;6.70;;;;;;;;;;5009491;28;20099;-60
2023/07/23 11:21:05;;;;;;;14.20;6.85;;;;;;;;;;5009535;28;20030;-59
2023/07/23 11:23:32;;;;;;;13.60;6.22;;;;;;;;;;5009690;28;20029;-55
2023/07/23 11:25:58;;;;;;;13.52;6.15;;;;;;;;;;5008775;28;20520;-58
2023/07/23 11:28:25;;;;;;;14.27;6.47;;;;;;;;;;5009486;28;20129;-56
2023/07/23 11:30:54;;;;;;;14.27;7.22;;;;;;;;;;5009913;28;20022;-59
2023/07/23 11:33:22;;;;;;;14.35;7.00;;;;;;;;;;5008927;28;20040;-59
2023/07/23 11:35:49;;;;;;;17.73;7.03;;;;;;;;;;5009191;28;20018;-57
2023/07/23 11:38:15;;;;;;;14.10;6.45;;;;;;;;;;5009629;28;20033;-56
2023/07/23 11:40:42;;;;;;;14.60;6.72;;;;;;;;;;5009560;28;20034;-57
2023/07/23 11:43:09;;;;;;;14.75;6.97;;;;;;;;;;5009097;28;20516;-56
2023/07/23 11:45:44;;;;;;;14.50;6.72;;;;;;;;;;5008199;28;20025;-55
2023/07/23 11:48:17;;;;;;;14.63;6.60;;;;;;;;;;5008922;28;20114;-56
2023/07/23 11:50:43;;;;;;;15.55;6.90;;;;;;;;;;5009153;28;20081;-55
2023/07/23 11:53:09;;;;;;;16.05;7.05;;;;;;;;;;5007955;28;20028;-57
2023/07/23 11:55:35;;;;;;;14.98;6.88;;;;;;;;;;5002435;28;20390;-59
2023/07/23 11:58:02;;;;;;;15.30;7.20;;;;;;;;;;4992160;28;20026;-58
2023/07/23 12:00:28;;;;;;;14.85;6.95;;;;;;;;;;4988271;28;20030;-57
2023/07/23 12:02:54;;;;;;;15.07;6.50;;;;;;;;;;4989559;28;20033;-57
2023/07/23 12:05:21;;;;;;;15.35;6.93;;;;;;;;;;4644630;28;10000010;-57
2023/07/23 12:07:47;;;;;;;15.95;6.85;;;;;;;;;;4994466;28;20666;-59
2023/07/23 12:10:14;;;;;;;15.70;7.20;;;;;;;;;;4998986;28;20126;-56
2023/07/23 12:12:40;;;;;;;16.52;6.95;;;;;;;;;;4985613;28;20116;-54
2023/07/23 12:15:06;;;;;;;14.52;6.55;;;;;;;;;;4991256;28;20379;-56
2023/07/23 12:17:35;;;;;;;14.65;7.20;;;;;;;;;;4985159;28;20808;-57
2023/07/23 12:20:02;;;;;;;15.82;7.50;;;;;;;;;;4986916;28;20022;-55
2023/07/23 12:22:30;;;;;;;14.80;7.22;;;;;;;;;;4987318;28;20031;-59
2023/07/23 12:24:56;;;;;;;16.50;8.37;;;;;;;;;;5004581;28;20042;-55
2023/07/23 12:27:22;;;;;;;15.75;8.98;;;;;;;;;;5004757;28;20281;-53
2023/07/23 12:29:48;;;;;;;17.58;14.45;;;;;;;;;;5004815;28;20078;-57
2023/07/23 12:32:19;;;;;;;18.42;14.93;;;;;;;;;;5005003;28;20405;-53
2023/07/23 12:34:48;;;;;;;17.02;14.38;;;;;;;;;;5004247;28;20121;-56
2023/07/23 12:37:17;;;;;;;17.80;15.65;;;;;;;;;;5004653;28;20033;-55
2023/07/23 12:39:43;;;;;;;;;;;;;;;;;;5002124;28;20109;-56
2023/07/23 12:42:09;;;;;;;18.25;16.35;;;;;;;;;;4984808;28;19997;-58
2023/07/23 12:44:35;;;;;;;19.05;17.15;;;;;;;;;;4985622;28;20027;-54
2023/07/23 12:47:01;;;;;;;19.45;17.40;;;;;;;;;;4988794;28;20023;-54
2023/07/23 12:49:27;;;;;;;19.05;16.98;;;;;;;;;;4988805;28;20030;-58
2023/07/23 12:51:53;;;;;;;20.65;18.52;;;;;;;;;;4987749;28;20018;-58
2023/07/23 12:54:19;;;;;;;19.52;17.30;;;;;;;;;;4987931;28;20030;-54
2023/07/23 12:56:46;;;;;;;18.50;16.60;;;;;;;;;;4988639;28;20031;-59
2023/07/23 12:59:12;;;;;;;20.20;18.17;;;;;;;;;;4987388;28;20030;-56
2023/07/23 13:01:39;;;;;;;19.58;17.58;;;;;;;;;;4988338;28;20030;-55
2023/07/23 13:04:05;;;;;;;20.60;18.60;;;;;;;;;;4999987;28;20023;-56
2023/07/23 13:06:31;;;;;;;19.63;17.63;;;;;;;;;;4992539;28;20060;-53
2023/07/23 13:08:57;;;;;;;19.38;17.48;;;;;;;;;;4656170;28;9999840;-58
2023/07/23 13:11:23;;;;;;;22.88;20.88;;;;;;;;;;5008482;28;20128;-56
2023/07/23 13:13:49;;;;;;;27.08;24.77;;;;;;;;;;5006700;28;20794;-55
2023/07/23 13:16:16;;;;;;;27.92;25.52;;;;;;;;;;4993949;28;20031;-54
2023/07/23 13:18:42;;;;;;;27.27;24.88;;;;;;;;;;4988623;28;20378;-58
2023/07/23 13:21:08;;;;;;;25.83;23.55;;;;;;;;;;4988479;28;20034;-57
2023/07/23 13:23:34;;;;;;;24.80;22.65;;;;;;;;;;4988379;28;20045;-57
2023/07/23 13:26:00;;;;;;;24.33;22.23;;;;;;;;;;4986276;28;20548;-54
2023/07/23 13:28:26;;;;;;;24.85;22.70;;;;;;;;;;5039271;28;20036;-59
2023/07/23 13:30:54;;;;;;;23.67;21.48;;;;;;;;;;5069413;28;20091;-55
2023/07/23 13:33:20;;;;;;;22.83;20.73;;;;;;;;;;5066273;28;20057;-58
2023/07/23 13:35:46;;;;;;;21.90;19.88;;;;;;;;;;5031573;28;20519;-54
2023/07/23 13:38:12;;;;;;;22.73;20.48;;;;;;;;;;5068045;28;20083;-56
2023/07/23 13:40:39;;;;;;;22.75;20.75;;;;;;;;;;5074476;28;20034;-57
2023/07/23 13:43:06;;;;;;;20.63;18.52;;;;;;;;;;5006542;28;20033;-57
2023/07/23 13:45:32;;;;;;;20.02;18.02;;;;;;;;;;5006714;28;20138;-54
2023/07/23 13:47:58;;;;;;;19.77;17.77;;;;;;;;;;5007274;28;20022;-58
2023/07/23 13:50:24;;;;;;;19.77;17.67;;;;;;;;;;5048119;28;20034;-57
2023/07/23 13:52:50;;;;;;;20.00;17.90;;;;;;;;;;5068254;28;20035;-58
2023/07/23 13:55:16;;;;;;;20.00;18.00;;;;;;;;;;5110322;28;20031;-53
2023/07/23 13:57:42;;;;;;;19.75;17.75;;;;;;;;;;5109991;28;20126;-54
2023/07/23 14:00:08;;;;;;;19.55;17.55;;;;;;;;;;5111589;28;20744;-58
2023/07/23 14:02:34;;;;;;;19.25;17.30;;;;;;;;;;5029772;28;20038;-59
2023/07/23 14:05:00;;;;;;;19.45;17.45;;;;;;;;;;5000080;28;20099;-60
2023/07/23 14:07:26;;;;;;;19.25;17.27;;;;;;;;;;4996687;28;20035;-60
2023/07/23 14:09:52;;;;;;;18.30;16.40;;;;;;;;;;4995705;28;20090;-59
2023/07/23 14:12:18;;;;;;;18.50;16.60;;;;;;;;;;4995089;28;20113;-60
2023/07/23 14:14:44;;;;;;;18.95;16.75;;;;;;;;;;4994246;28;20033;-59
2023/07/23 14:17:17;;;;;;;18.90;16.90;;;;;;;;;;4993583;28;20470;-59